Time;durP1;ratioP1;P1;durP2;ratioP2;P2;SDS_P1;SDS_P2;PMS_P1;PMS_P2;Temp;Humidity;BMP_temperature;BMP_pressure;BME280_temperature;BME280_humidity;BME280_pressure;Samples;Min_cycle;Max_cycle;Signal;HPM_P1;HPM_P2
2023/11/11 00:01:57;;;;;;;4.22;1.40;;;;;;;6.82;70.79;96932.75;5017135;27;103193;-65
2023/11/11 00:04:26;;;;;;;1.98;1.38;;;;;;;6.84;71.00;96931.56;5032585;27;102622;-65
2023/11/11 00:06:54;;;;;;;4.90;1.80;;;;;;;6.84;70.87;96922.81;5035243;27;102832;-65
2023/11/11 00:09:22;;;;;;;3.58;1.42;;;;;;;6.83;70.86;96923.84;5030338;27;103303;-65
2023/11/11 00:11:51;;;;;;;2.80;1.50;;;;;;;6.77;70.89;96931.50;5022058;27;103250;-65
2023/11/11 00:14:19;;;;;;;3.50;1.85;;;;;;;6.77;71.67;96928.88;5031393;27;102638;-65
2023/11/11 00:16:47;;;;;;;1.65;1.40;;;;;;;6.78;71.10;96929.66;5013815;27;102809;-65
2023/11/11 00:19:17;;;;;;;3.53;1.40;;;;;;;6.74;71.12;96917.88;5012976;27;103856;-64
2023/11/11 00:21:49;;;;;;;3.00;1.40;;;;;;;6.76;71.23;96927.22;5028276;27;102849;-65
2023/11/11 00:24:20;;;;;;;1.95;1.17;;;;;;;6.67;71.65;96925.72;5029793;27;102612;-65
2023/11/11 00:26:48;;;;;;;3.97;1.58;;;;;;;6.69;71.56;96928.97;5016228;27;104320;-65
2023/11/11 00:29:17;;;;;;;2.40;1.10;;;;;;;6.71;71.57;96931.44;5015945;27;104093;-65
2023/11/11 00:31:47;;;;;;;2.55;1.52;;;;;;;6.71;72.20;96934.88;5011881;27;104393;-65
2023/11/11 00:34:17;;;;;;;5.00;1.92;;;;;;;6.71;72.44;96932.22;5008634;27;102718;-65
2023/11/11 00:36:47;;;;;;;3.95;1.50;;;;;;;6.69;72.14;96944.75;5031617;27;102676;-65
2023/11/11 00:39:15;;;;;;;2.92;1.40;;;;;;;6.71;72.46;96948.03;5020272;27;103578;-64
2023/11/11 00:41:44;;;;;;;2.47;1.50;;;;;;;6.79;72.54;96940.00;5012806;27;103196;-65
2023/11/11 00:44:12;;;;;;;3.08;1.60;;;;;;;6.74;72.74;96942.38;5027753;27;102678;-65
2023/11/11 00:46:41;;;;;;;1.92;1.48;;;;;;;6.67;74.00;96941.50;5009248;27;102863;-65
2023/11/11 00:49:10;;;;;;;1.45;1.05;;;;;;;6.74;73.27;96947.63;5008963;27;103214;-65
2023/11/11 00:51:40;;;;;;;3.35;1.80;;;;;;;6.69;73.80;96949.22;5029402;27;103184;-65
2023/11/11 00:54:10;;;;;;;4.28;1.52;;;;;;;6.74;72.99;96954.72;5013064;27;102619;-65
2023/11/11 00:56:39;;;;;;;2.20;1.35;;;;;;;6.73;73.97;96969.69;5012247;27;103789;-65
2023/11/11 00:59:07;;;;;;;2.53;1.25;;;;;;;6.73;73.78;96967.06;5036169;27;104152;-64
2023/11/11 01:01:35;;;;;;;1.77;1.33;;;;;;;6.75;74.19;96957.16;5029094;27;103198;-64
2023/11/11 01:04:04;;;;;;;2.97;1.23;;;;;;;6.75;73.85;96969.53;5012876;27;103030;-64
2023/11/11 01:06:34;;;;;;;1.63;1.20;;;;;;;6.74;74.27;96973.16;5027940;27;102619;-64
2023/11/11 01:09:03;;;;;;;3.42;1.35;;;;;;;6.68;74.45;96972.09;5029733;27;103236;-65
2023/11/11 01:41:36;;;;;;;1.23;1.10;;;;;;;7.11;68.79;97016.88;5025596;27;103124;-65
2023/11/11 01:44:05;;;;;;;0.95;0.90;;;;;;;7.08;68.53;97004.06;5007739;27;103237;-65
2023/11/11 01:46:34;;;;;;;0.73;0.73;;;;;;;7.10;68.33;97007.34;5011836;27;104128;-65
2023/11/11 01:49:02;;;;;;;0.95;0.88;;;;;;;7.11;68.98;96995.81;5010809;27;102640;-65
2023/11/11 01:51:31;;;;;;;1.85;1.10;;;;;;;7.14;68.62;97005.94;5007558;27;104358;-64
2023/11/11 01:54:02;;;;;;;1.35;1.10;;;;;;;7.15;68.73;97012.00;5010018;27;103240;-65
2023/11/11 01:56:30;;;;;;;0.93;0.90;;;;;;;7.11;68.05;97016.88;5034393;27;103043;-65
2023/11/11 01:59:00;;;;;;;1.08;0.98;;;;;;;7.11;66.93;97019.50;5004175;27;102692;-65
2023/11/11 02:01:28;;;;;;;1.20;1.10;;;;;;;7.12;67.10;97031.63;5009928;27;103205;-68
2023/11/11 02:03:57;;;;;;;1.08;0.73;;;;;;;7.14;65.91;97016.47;5006057;27;103195;-65
2023/11/11 02:06:27;;;;;;;1.00;0.93;;;;;;;7.10;65.95;97040.72;5024913;27;102575;-66
2023/11/11 02:08:55;;;;;;;1.13;1.02;;;;;;;7.12;65.57;97046.63;5011282;27;103055;-66
2023/11/11 02:11:23;;;;;;;1.65;0.95;;;;;;;7.13;65.62;97033.28;5011448;28;103996;-65
2023/11/11 02:13:52;;;;;;;0.80;0.80;;;;;;;7.10;65.83;97031.03;5025536;27;103246;-66
2023/11/11 02:16:22;;;;;;;0.82;0.82;;;;;;;7.09;66.05;97033.84;5010208;27;102613;-66
2023/11/11 02:18:50;;;;;;;1.48;0.68;;;;;;;7.06;65.93;97034.19;5032432;27;104039;-65
2023/11/11 02:21:19;;;;;;;1.35;1.00;;;;;;;7.07;66.48;97044.53;5010674;27;103323;-66
2023/11/11 02:23:50;;;;;;;1.08;1.00;;;;;;;7.09;66.65;97047.00;5008735;27;103437;-65
2023/11/11 02:26:18;;;;;;;0.98;0.95;;;;;;;7.00;67.15;97062.09;5009876;27;102732;-65
2023/11/11 02:28:46;;;;;;;1.75;1.10;;;;;;;6.98;66.75;97064.09;5035343;27;102811;-65
2023/11/11 02:31:14;;;;;;;0.80;0.80;;;;;;;7.00;67.12;97054.19;5012921;27;103913;-65
2023/11/11 02:33:43;;;;;;;0.85;0.85;;;;;;;7.01;67.48;97076.91;5010863;27;103224;-65
2023/11/11 02:36:12;;;;;;;0.80;0.80;;;;;;;6.96;68.32;97081.91;5012529;27;102767;-65
2023/11/11 02:38:40;;;;;;;0.95;0.80;;;;;;;6.78;68.65;97080.47;5030727;27;102744;-65
2023/11/11 02:41:09;;;;;;;0.82;0.82;;;;;;;6.79;69.75;97081.28;5015011;27;104065;-65
2023/11/11 02:43:38;;;;;;;1.20;0.75;;;;;;;6.76;69.27;97092.16;5030866;27;103986;-65
2023/11/11 02:46:07;;;;;;;1.00;0.63;;;;;;;6.55;70.93;97090.28;5030689;27;102634;-65
2023/11/11 02:48:35;;;;;;;1.23;0.93;;;;;;;6.29;72.72;97102.88;5016097;27;104072;-63
2023/11/11 02:51:04;;;;;;;1.85;1.20;;;;;;;6.52;73.25;97098.53;5014752;27;103216;-63
2023/11/11 02:53:32;;;;;;;1.58;1.05;;;;;;;6.34;75.21;97115.50;5015329;27;103169;-63
2023/11/11 02:56:00;;;;;;;1.00;0.90;;;;;;;6.33;74.62;97108.59;5019265;27;102717;-63
2023/11/11 02:58:29;;;;;;;2.05;0.80;;;;;;;6.36;74.71;97113.50;5026295;27;104186;-63
2023/11/11 03:00:57;;;;;;;2.28;1.17;;;;;;;6.34;74.93;97115.50;5012159;27;103559;-63
2023/11/11 03:03:27;;;;;;;1.75;1.00;;;;;;;6.34;75.13;97110.25;5016950;28;103248;-63
2023/11/11 03:05:55;;;;;;;1.50;1.10;;;;;;;6.39;76.08;97112.31;5010478;27;102610;-63
2023/11/11 03:08:23;;;;;;;1.40;1.25;;;;;;;6.50;75.39;97103.16;5032212;27;102761;-63
2023/11/11 03:10:51;;;;;;;1.23;1.10;;;;;;;6.36;76.78;97124.00;5018982;27;104223;-62
2023/11/11 03:13:19;;;;;;;1.45;1.10;;;;;;;6.41;76.62;97121.66;5019625;27;103183;-63
2023/11/11 03:15:49;;;;;;;1.20;1.08;;;;;;;6.41;76.72;97137.44;5009655;27;102723;-63
2023/11/11 03:18:16;;;;;;;1.10;1.10;;;;;;;6.39;76.23;97139.44;5015934;27;102784;-63
2023/11/11 03:20:44;;;;;;;1.25;1.10;;;;;;;6.42;76.13;97139.09;5019208;27;103259;-63
2023/11/11 03:23:12;;;;;;;3.70;1.17;;;;;;;6.47;75.58;97142.00;5024643;27;104121;-63
2023/11/11 03:25:41;;;;;;;2.25;1.50;;;;;;;6.39;75.59;97139.44;5018755;27;102930;-64
2023/11/11 03:28:09;;;;;;;1.35;1.10;;;;;;;6.43;75.43;97140.72;5013511;27;103729;-64
2023/11/11 03:30:37;;;;;;;1.95;1.40;;;;;;;6.36;75.83;97145.03;5015118;27;104523;-64
2023/11/11 03:33:07;;;;;;;3.05;1.40;;;;;;;6.40;74.93;97150.78;5019764;27;103183;-64
2023/11/11 03:35:35;;;;;;;1.73;1.30;;;;;;;6.41;75.31;97160.31;5024402;27;103048;-64
2023/11/11 03:38:03;;;;;;;1.95;1.33;;;;;;;6.38;74.95;97158.84;5037479;27;104377;-64
2023/11/11 03:40:31;;;;;;;2.78;1.50;;;;;;;6.40;74.54;97172.63;5041179;27;104047;-64
2023/11/11 03:42:59;;;;;;;1.40;1.30;;;;;;;6.45;74.85;97175.53;5023145;27;103437;-64
2023/11/11 03:45:27;;;;;;;1.60;1.30;;;;;;;6.50;74.38;97171.53;5027737;27;102826;-64
2023/11/11 03:47:55;;;;;;;2.33;1.60;;;;;;;6.44;74.33;97176.53;5016711;27;104328;-65
2023/11/11 03:50:24;;;;;;;2.15;1.50;;;;;;;6.55;74.58;97179.72;5017620;27;104564;-64
2023/11/11 03:52:52;;;;;;;2.63;1.60;;;;;;;6.53;74.29;97194.88;5008131;27;103861;-64
2023/11/11 03:55:21;;;;;;;2.25;1.50;;;;;;;6.47;73.83;97191.97;5013332;27;102709;-64
2023/11/11 03:57:49;;;;;;;1.92;1.42;;;;;;;6.56;74.01;97202.41;5012462;27;102697;-64
2023/11/11 04:00:19;;;;;;;1.55;1.35;;;;;;;6.54;73.89;97196.50;5011188;27;103483;-64
2023/11/11 04:02:48;;;;;;;2.35;1.65;;;;;;;6.54;73.53;97209.66;5030747;27;103385;-64
2023/11/11 04:05:16;;;;;;;2.22;1.60;;;;;;;6.53;73.48;97218.53;5030507;27;102689;-65
2023/11/11 04:07:46;;;;;;;3.22;1.60;;;;;;;6.48;73.00;97216.44;5041920;27;103225;-65
2023/11/11 04:10:17;;;;;;;2.72;1.40;;;;;;;6.58;73.31;97221.47;5012992;27;103204;-65
2023/11/11 04:12:48;;;;;;;1.67;1.40;;;;;;;6.50;73.34;97224.16;5035398;27;103424;-65
2023/11/11 04:15:16;;;;;;;3.38;1.80;;;;;;;6.55;73.27;97227.06;5036111;27;102932;-64
2023/11/11 04:17:44;;;;;;;3.50;1.70;;;;;;;6.55;73.10;97232.31;5018031;27;102736;-64
2023/11/11 04:20:14;;;;;;;2.55;1.63;;;;;;;6.46;73.46;97242.13;5011088;27;103550;-65
2023/11/11 04:22:42;;;;;;;3.80;1.80;;;;;;;6.42;73.37;97262.69;5011593;27;104285;-64
2023/11/11 04:25:12;;;;;;;3.08;1.65;;;;;;;6.49;73.81;97268.06;5012963;27;103309;-64
2023/11/11 04:27:42;;;;;;;2.85;1.52;;;;;;;6.44;73.73;97279.09;5013049;27;102804;-64
2023/11/11 04:30:11;;;;;;;3.63;1.70;;;;;;;6.46;73.68;97279.75;5038558;27;103221;-64
2023/11/11 04:32:40;;;;;;;3.10;1.65;;;;;;;6.41;74.44;97287.34;5032415;27;103194;-64
2023/11/11 04:35:08;;;;;;;6.63;1.77;;;;;;;6.40;74.98;97288.34;5020042;27;102663;-64
2023/11/11 04:37:37;;;;;;;6.05;1.70;;;;;;;6.49;74.90;97306.69;5035202;27;102755;-64
2023/11/11 04:40:08;;;;;;;5.45;1.80;;;;;;;6.46;74.26;97302.59;5029711;27;103322;-64
2023/11/11 04:42:38;;;;;;;2.60;1.70;;;;;;;6.46;74.45;97311.31;5034935;27;103177;-65
2023/11/11 04:45:08;;;;;;;1.50;1.40;;;;;;;6.49;74.06;97319.84;5007350;27;102629;-64
2023/11/11 04:47:36;;;;;;;2.75;1.67;;;;;;;6.50;74.28;97329.34;5035201;27;104209;-65
2023/11/11 04:50:04;;;;;;;2.85;1.92;;;;;;;6.47;74.16;97334.00;5027549;27;103284;-64
2023/11/11 04:52:35;;;;;;;3.92;1.80;;;;;;;6.59;73.91;97344.09;5025555;27;103230;-64
2023/11/11 04:55:04;;;;;;;2.50;1.80;;;;;;;6.57;73.40;97348.72;5012306;27;103166;-64
2023/11/11 04:57:32;;;;;;;3.13;2.00;;;;;;;6.58;74.03;97356.44;5038672;27;102610;-64
2023/11/11 05:00:05;;;;;;;3.78;2.05;;;;;;;6.63;74.16;97354.09;5038311;27;103223;-64
2023/11/11 05:02:34;;;;;;;4.22;1.92;;;;;;;6.60;73.44;97364.13;5037831;27;103246;-64
2023/11/11 05:05:02;;;;;;;3.15;1.73;;;;;;;6.58;73.78;97371.41;5032916;27;102575;-65
2023/11/11 05:07:31;;;;;;;2.63;1.70;;;;;;;6.60;73.60;97372.88;5031847;27;103936;-65
2023/11/11 05:09:59;;;;;;;4.53;1.90;;;;;;;6.58;73.52;97376.66;5038214;27;103370;-64
2023/11/11 05:12:33;;;;;;;3.78;1.75;;;;;;;6.66;72.91;97387.13;5036162;27;103225;-64
2023/11/11 05:15:07;;;;;;;2.70;1.60;;;;;;;6.71;72.77;97390.06;5029319;27;102682;-64
2023/11/11 05:17:35;;;;;;;2.58;1.73;;;;;;;6.56;73.64;97395.22;5034734;27;103928;-64
2023/11/11 05:20:04;;;;;;;2.80;1.48;;;;;;;6.47;73.65;97388.38;5033961;27;103215;-64
2023/11/11 05:22:32;;;;;;;3.83;1.92;;;;;;;6.48;73.83;97400.56;5031265;27;103295;-64
2023/11/11 05:25:00;;;;;;;2.42;1.65;;;;;;;6.53;73.61;97408.75;5027724;27;102593;-63
2023/11/11 05:27:28;;;;;;;3.85;2.17;;;;;;;6.59;73.60;97412.47;5030234;27;104117;-64
2023/11/11 05:29:57;;;;;;;6.97;2.00;;;;;;;6.58;72.68;97410.88;5026059;27;103225;-63
2023/11/11 05:32:28;;;;;;;4.15;1.75;;;;;;;6.51;72.66;97416.00;5032962;27;103313;-63
2023/11/11 05:34:57;;;;;;;3.30;1.73;;;;;;;6.43;72.71;97413.41;5024787;27;102899;-64
2023/11/11 05:37:26;;;;;;;4.35;2.30;;;;;;;6.43;73.13;97411.63;5030132;27;102642;-64
2023/11/11 05:39:54;;;;;;;4.22;2.00;;;;;;;6.36;72.61;97415.91;5036420;27;102870;-63
2023/11/11 05:42:22;;;;;;;3.42;1.80;;;;;;;6.44;72.80;97418.47;5037326;27;103178;-64
2023/11/11 05:44:51;;;;;;;2.38;1.50;;;;;;;6.27;72.35;97417.75;5012042;27;102703;-64
2023/11/11 05:47:19;;;;;;;3.22;1.90;;;;;;;6.31;72.67;97420.88;5032478;27;103598;-64
2023/11/11 05:49:49;;;;;;;2.97;1.90;;;;;;;6.38;72.28;97421.84;5013093;27;103980;-64
2023/11/11 05:52:17;;;;;;;2.65;1.70;;;;;;;6.33;72.74;97426.78;5032613;27;103271;-65
2023/11/11 05:54:45;;;;;;;3.78;2.03;;;;;;;6.26;72.16;97429.28;5025472;27;102655;-65
2023/11/11 05:57:13;;;;;;;5.22;2.20;;;;;;;6.24;72.06;97443.59;5026579;27;104111;-65
2023/11/11 05:59:41;;;;;;;2.95;1.90;;;;;;;6.25;72.65;97445.22;5033340;27;103229;-64
2023/11/11 06:02:09;;;;;;;3.67;1.95;;;;;;;6.32;72.02;97451.44;5006303;27;103368;-65
2023/11/11 06:04:37;;;;;;;4.30;1.90;;;;;;;6.31;71.80;97457.69;5028123;27;103157;-65
2023/11/11 06:07:07;;;;;;;4.50;2.10;;;;;;;6.28;71.74;97458.84;5032488;27;102682;-64
2023/11/11 06:09:35;;;;;;;4.63;1.90;;;;;;;6.21;72.12;97457.06;5029610;27;103387;-64
2023/11/11 06:12:04;;;;;;;4.55;1.85;;;;;;;6.21;72.21;97463.16;5026495;27;103185;-64
2023/11/11 06:14:33;;;;;;;2.95;1.95;;;;;;;6.24;72.27;97468.06;5031423;27;102830;-64
2023/11/11 06:17:00;;;;;;;4.32;2.30;;;;;;;6.19;72.25;97474.84;5029161;27;102720;-64
2023/11/11 06:19:29;;;;;;;5.22;2.20;;;;;;;6.19;72.13;97474.84;5009333;27;103395;-64
2023/11/11 06:21:57;;;;;;;3.58;2.05;;;;;;;6.06;72.40;97486.69;5031232;27;103297;-64
2023/11/11 06:24:26;;;;;;;3.40;2.10;;;;;;;6.12;72.60;97478.13;5028604;27;102962;-64
2023/11/11 06:26:54;;;;;;;4.13;2.35;;;;;;;6.12;72.70;97491.28;5028493;27;102691;-64
2023/11/11 06:29:22;;;;;;;6.03;2.25;;;;;;;6.09;72.68;97498.69;5028570;27;103256;-65
2023/11/11 06:31:53;;;;;;;6.25;2.55;;;;;;;6.11;72.51;97500.16;5028586;27;103167;-64
2023/11/11 06:34:21;;;;;;;4.18;2.17;;;;;;;6.04;72.48;97501.84;5029513;27;102624;-64
2023/11/11 06:36:49;;;;;;;3.65;2.30;;;;;;;6.14;72.47;97504.25;5029274;27;102700;-64
2023/11/11 06:39:17;;;;;;;3.35;2.08;;;;;;;6.12;72.63;97509.69;5011527;27;103255;-64
2023/11/11 06:41:46;;;;;;;3.97;2.40;;;;;;;6.22;72.36;97524.44;5031713;27;103361;-64
2023/11/11 06:44:20;;;;;;;4.28;2.50;;;;;;;6.30;71.83;97527.03;5026663;27;102768;-63
2023/11/11 06:46:53;;;;;;;3.28;2.10;;;;;;;6.34;72.57;97536.25;5011409;27;103005;-63
2023/11/11 06:49:21;;;;;;;3.80;2.10;;;;;;;6.33;72.01;97544.28;5027370;27;103114;-64
2023/11/11 06:51:48;;;;;;;4.47;2.58;;;;;;;6.22;72.18;97541.06;5026732;27;103868;-63
2023/11/11 06:54:19;;;;;;;2.83;1.95;;;;;;;6.29;72.23;97543.81;5026927;27;102729;-64
2023/11/11 06:56:53;;;;;;;3.90;2.20;;;;;;;6.32;71.51;97551.38;5030900;27;102670;-64
2023/11/11 06:59:20;;;;;;;3.33;2.33;;;;;;;6.35;71.75;97555.47;5023828;27;102620;-68
2023/11/11 07:01:48;;;;;;;3.65;2.40;;;;;;;6.35;70.67;97556.28;5037554;27;103299;-68
2023/11/11 07:04:17;;;;;;;4.00;2.50;;;;;;;6.37;70.47;97562.19;5030192;27;102601;-68
2023/11/11 07:06:44;;;;;;;3.88;2.00;;;;;;;6.39;70.87;97570.75;5015982;27;102842;-68
2023/11/11 07:09:13;;;;;;;3.72;2.03;;;;;;;6.45;71.00;97566.63;5031256;27;103330;-68
2023/11/11 07:11:44;;;;;;;3.75;2.20;;;;;;;6.43;70.64;97571.22;5032024;27;103304;-67
2023/11/11 07:14:13;;;;;;;3.53;2.20;;;;;;;6.58;70.81;97577.41;5033725;27;103127;-68
2023/11/11 07:16:44;;;;;;;4.80;2.30;;;;;;;6.56;70.22;97587.28;5031660;27;102623;-67
2023/11/11 07:19:12;;;;;;;2.90;1.98;;;;;;;6.51;70.31;97594.88;5034434;27;103443;-67
2023/11/11 07:21:42;;;;;;;4.38;1.73;;;;;;;6.53;70.37;97599.97;5033785;27;103212;-68
2023/11/11 07:24:10;;;;;;;2.30;1.60;;;;;;;6.56;70.82;97597.81;5028465;27;102633;-68
2023/11/11 07:26:41;;;;;;;4.53;1.98;;;;;;;6.62;70.21;97601.59;5010436;27;103067;-68
2023/11/11 07:29:09;;;;;;;2.63;1.80;;;;;;;6.57;70.65;97609.16;5029309;27;103964;-67
2023/11/11 07:31:38;;;;;;;4.75;1.85;;;;;;;6.56;70.41;97600.44;5034590;27;103321;-67
2023/11/11 07:34:08;;;;;;;3.88;2.25;;;;;;;6.47;69.77;97604.06;5031713;27;102617;-67
2023/11/11 07:36:35;;;;;;;8.77;1.90;;;;;;;6.53;69.69;97607.88;5034637;27;102675;-63
2023/11/11 07:39:04;;;;;;;3.50;2.00;;;;;;;6.55;69.69;97611.13;5032143;27;104270;-63
2023/11/11 07:41:32;;;;;;;5.18;2.00;;;;;;;6.71;69.97;97615.53;5032470;27;103634;-68
2023/11/11 07:44:04;;;;;;;3.88;2.35;;;;;;;6.62;69.61;97612.91;5034975;27;102683;-67
2023/11/11 07:46:33;;;;;;;4.15;1.88;;;;;;;6.68;69.56;97627.22;5036698;27;104055;-68
2023/11/11 07:49:05;;;;;;;3.22;2.00;;;;;;;6.67;69.95;97625.56;5035440;27;104080;-68
2023/11/11 07:51:33;;;;;;;3.65;2.20;;;;;;;6.74;69.59;97625.72;5029964;27;103365;-68
2023/11/11 07:54:02;;;;;;;4.03;2.22;;;;;;;6.78;69.20;97627.81;5029283;27;103079;-67
2023/11/11 07:56:34;;;;;;;6.22;2.30;;;;;;;6.71;68.66;97629.50;5032391;27;102674;-68
2023/11/11 07:59:04;;;;;;;3.95;2.28;;;;;;;6.84;68.93;97636.03;5033671;27;103226;-68
2023/11/11 08:01:32;;;;;;;3.58;2.20;;;;;;;6.76;68.95;97636.88;5027145;27;103198;-68
2023/11/11 08:04:00;;;;;;;3.15;1.98;;;;;;;6.82;68.66;97632.75;5028613;27;103290;-68
2023/11/11 08:06:29;;;;;;;2.70;1.70;;;;;;;6.95;68.68;97640.94;5016734;27;102695;-68
2023/11/11 08:08:58;;;;;;;3.85;2.15;;;;;;;7.05;68.24;97646.81;5035201;27;104111;-68
2023/11/11 08:11:26;;;;;;;3.47;2.00;;;;;;;7.06;68.29;97645.81;5031249;27;103318;-68
2023/11/11 08:13:54;;;;;;;4.03;2.13;;;;;;;7.13;68.39;97641.50;5008385;27;102812;-64
2023/11/11 08:16:22;;;;;;;3.97;2.30;;;;;;;7.21;67.93;97650.38;5012797;27;103016;-68
2023/11/11 08:18:52;;;;;;;3.63;2.17;;;;;;;7.09;67.93;97656.00;5032315;27;103297;-67
2023/11/11 08:21:25;;;;;;;3.17;2.17;;;;;;;7.01;68.42;97660.47;5038087;27;103207;-68
2023/11/11 08:23:56;;;;;;;5.00;2.10;;;;;;;7.02;67.16;97665.59;5010498;27;104133;-68
2023/11/11 08:26:25;;;;;;;4.78;2.30;;;;;;;7.05;67.59;97657.34;5029238;27;102659;-68
2023/11/11 08:28:53;;;;;;;6.15;2.80;;;;;;;7.15;66.69;97670.28;5007723;27;103919;-68
2023/11/11 08:31:21;;;;;;;5.13;2.40;;;;;;;7.16;66.64;97677.19;5029390;27;103115;-68
2023/11/11 08:33:50;;;;;;;7.43;2.40;;;;;;;6.93;65.93;97677.13;5005197;27;103084;-68
2023/11/11 08:36:18;;;;;;;4.00;2.40;;;;;;;7.13;66.20;97673.09;5030902;27;102682;-68
2023/11/11 08:38:46;;;;;;;5.65;2.33;;;;;;;7.05;67.42;97688.94;5027765;27;103254;-68
2023/11/11 08:41:18;;;;;;;5.35;2.17;;;;;;;7.04;66.25;97691.75;5027108;27;103226;-68
2023/11/11 08:43:46;;;;;;;5.30;2.00;;;;;;;7.04;66.60;97689.91;5030207;27;102558;-68
2023/11/11 08:46:14;;;;;;;5.22;2.47;;;;;;;7.02;67.24;97691.91;5023655;27;102734;-68
2023/11/11 08:48:42;;;;;;;3.88;2.30;;;;;;;7.07;66.74;97699.28;5026348;27;104514;-68
2023/11/11 08:51:11;;;;;;;4.25;2.65;;;;;;;7.19;66.61;97699.75;5026999;27;103300;-68
2023/11/11 08:53:39;;;;;;;4.05;2.08;;;;;;;7.26;66.21;97704.16;5030551;27;102658;-68
2023/11/11 08:56:09;;;;;;;4.60;2.80;;;;;;;7.22;66.34;97702.03;5031498;27;102741;-68
2023/11/11 08:58:39;;;;;;;5.05;2.22;;;;;;;7.25;65.48;97701.69;5010721;27;102986;-68
2023/11/11 09:01:07;;;;;;;5.32;2.28;;;;;;;7.09;64.76;97708.66;5005733;27;104230;-67
2023/11/11 09:03:37;;;;;;;4.70;2.30;;;;;;;7.20;64.67;97719.81;5030617;27;102668;-67
2023/11/11 09:06:06;;;;;;;4.97;2.30;;;;;;;7.26;65.81;97705.97;5029121;27;102642;-65
2023/11/11 09:08:34;;;;;;;5.82;2.75;;;;;;;7.25;65.47;97714.88;5028011;27;103294;-67
2023/11/11 09:11:03;;;;;;;5.75;2.47;;;;;;;7.30;64.60;97720.44;5001644;27;103221;-65
2023/11/11 09:13:31;;;;;;;4.82;2.75;;;;;;;7.36;65.91;97713.66;5030357;27;102668;-68
2023/11/11 09:16:03;;;;;;;4.20;2.17;;;;;;;7.30;63.88;97720.44;5033766;27;102672;-68
2023/11/11 09:18:32;;;;;;;4.72;2.20;;;;;;;7.38;64.46;97717.75;5005246;27;103193;-65
2023/11/11 09:21:00;;;;;;;4.72;2.10;;;;;;;7.35;63.88;97720.75;5023818;27;103195;-64
2023/11/11 09:23:28;;;;;;;4.75;2.20;;;;;;;7.26;63.72;97724.41;5023827;27;102660;-64
2023/11/11 09:25:58;;;;;;;3.20;1.80;;;;;;;7.35;64.56;97722.56;5028663;27;103391;-68
2023/11/11 09:28:26;;;;;;;2.90;1.90;;;;;;;7.36;63.72;97730.28;5026888;27;103435;-65
2023/11/11 09:30:54;;;;;;;4.40;2.08;;;;;;;7.36;63.50;97729.47;5009513;27;104184;-64
2023/11/11 09:33:24;;;;;;;3.47;1.90;;;;;;;7.53;63.53;97735.47;5024109;27;102904;-65
2023/11/11 09:35:52;;;;;;;5.13;2.35;;;;;;;7.52;62.71;97741.75;5007535;27;102743;-68
2023/11/11 09:38:20;;;;;;;2.85;1.88;;;;;;;7.60;63.05;97737.25;5012535;27;103208;-64
2023/11/11 09:40:48;;;;;;;3.95;1.90;;;;;;;7.59;62.99;97742.72;5005508;27;103759;-65
2023/11/11 09:43:16;;;;;;;3.40;2.08;;;;;;;7.74;62.30;97745.41;5024246;27;103067;-67
2023/11/11 09:45:44;;;;;;;4.97;2.28;;;;;;;7.67;62.79;97750.56;5013110;27;103678;-68
2023/11/11 09:48:13;;;;;;;4.00;2.13;;;;;;;7.72;61.41;97750.88;5013461;27;103437;-69
2023/11/11 09:50:45;;;;;;;4.60;2.10;;;;;;;7.85;62.13;97752.09;5032888;27;103315;-64
2023/11/11 09:53:13;;;;;;;6.25;2.05;;;;;;;7.92;61.25;97750.44;5007223;27;102736;-67
2023/11/11 09:55:43;;;;;;;4.32;2.00;;;;;;;7.95;61.18;97750.91;5008742;27;102969;-68
2023/11/11 09:58:13;;;;;;;3.45;2.00;;;;;;;8.04;60.70;97743.75;5029185;27;103678;-68
2023/11/11 10:00:42;;;;;;;3.25;1.90;;;;;;;8.03;60.64;97744.75;5021448;27;104832;-68
2023/11/11 10:03:10;;;;;;;6.22;2.17;;;;;;;8.03;60.37;97752.66;5026638;27;102917;-65
2023/11/11 10:05:40;;;;;;;3.90;2.05;;;;;;;8.02;59.64;97748.38;5026821;27;102699;-69
2023/11/11 10:08:09;;;;;;;4.50;2.10;;;;;;;7.89;60.15;97750.78;5025100;27;104312;-68
2023/11/11 10:10:38;;;;;;;3.53;1.98;;;;;;;8.09;60.29;97751.94;5026806;27;103894;-69
2023/11/11 10:13:06;;;;;;;2.97;1.77;;;;;;;8.10;60.12;97758.06;5006285;27;102840;-65
2023/11/11 10:15:34;;;;;;;4.05;2.08;;;;;;;8.17;61.26;97763.44;5031903;27;102691;-68
2023/11/11 10:18:04;;;;;;;4.07;2.25;;;;;;;8.18;60.57;97759.81;5025281;27;103657;-65
2023/11/11 10:20:33;;;;;;;2.80;1.70;;;;;;;8.17;60.48;97768.72;5029662;27;103988;-66
2023/11/11 10:23:01;;;;;;;2.63;1.83;;;;;;;8.33;60.60;97765.16;5005853;27;102645;-69
2023/11/11 10:25:35;;;;;;;2.80;1.88;;;;;;;8.31;59.47;97754.78;5035464;27;103765;-66
2023/11/11 10:28:04;;;;;;;3.90;2.20;;;;;;;8.83;58.45;97747.09;5030343;27;102962;-66
2023/11/11 10:30:34;;;;;;;3.15;1.80;;;;;;;9.39;57.86;97757.22;5020817;27;103174;-66
2023/11/11 10:33:04;;;;;;;3.20;1.85;;;;;;;9.34;56.12;97743.72;5022673;27;102847;-69
2023/11/11 10:35:33;;;;;;;4.40;2.03;;;;;;;9.37;56.71;97746.84;5028398;27;102625;-68
2023/11/11 10:38:08;;;;;;;3.60;1.85;;;;;;;9.26;56.99;97752.56;5025996;27;103279;-68
2023/11/11 10:40:37;;;;;;;3.83;2.17;;;;;;;9.50;56.08;97734.78;5026277;27;103161;-68
2023/11/11 10:43:06;;;;;;;2.67;1.50;;;;;;;9.23;56.15;97742.38;5009836;27;102670;-65
2023/11/11 10:45:35;;;;;;;5.25;2.00;;;;;;;8.91;55.16;97739.09;5035349;27;102621;-66
2023/11/11 10:48:06;;;;;;;3.45;2.00;;;;;;;9.03;55.78;97732.34;5009886;27;103886;-66
2023/11/11 10:50:38;;;;;;;3.88;1.83;;;;;;;8.86;56.64;97729.06;5025218;27;103908;-65
2023/11/11 10:53:07;;;;;;;7.38;2.30;;;;;;;8.72;55.40;97741.25;5031275;27;103119;-68
2023/11/11 10:55:38;;;;;;;4.95;2.03;;;;;;;8.96;55.59;97732.28;5026814;27;104136;-65
2023/11/11 10:58:07;;;;;;;3.72;1.73;;;;;;;8.82;55.24;97730.44;5035691;27;103226;-66
2023/11/11 11:00:36;;;;;;;3.85;1.60;;;;;;;8.85;55.51;97740.63;5024613;27;103224;-68
2023/11/11 11:03:05;;;;;;;2.90;1.70;;;;;;;8.69;54.53;97746.91;5030189;27;103079;-64
2023/11/11 11:05:38;;;;;;;2.63;1.70;;;;;;;8.95;55.54;97745.66;5010941;27;102670;-65
2023/11/11 11:08:13;;;;;;;3.33;1.75;;;;;;;8.86;55.33;97741.47;5008394;27;103843;-67
2023/11/11 11:11:11;;;;;;;3.70;2.15;;;;;;;8.93;55.06;97747.66;5008974;27;103126;-65
2023/11/11 11:13:41;;;;;;;3.10;1.67;;;;;;;9.11;53.47;97752.59;5003903;27;102903;-65
2023/11/11 11:16:16;;;;;;;2.78;1.77;;;;;;;9.44;53.91;97742.44;5026230;27;102765;-67
2023/11/11 11:23:04;;;;;;;7.65;2.03;;;;;;;9.66;53.26;97742.50;5027475;27;102906;-68
2023/11/11 11:25:41;;;;;;;2.23;1.70;;;;;;;10.18;51.89;97739.78;5031479;27;103714;-68
2023/11/11 11:28:21;;;;;;;3.88;1.80;;;;;;;10.57;50.77;97743.81;5016443;27;103192;-68
2023/11/11 11:30:51;;;;;;;5.30;2.42;;;;;;;10.06;51.69;97732.38;5007849;27;104300;-68
2023/11/11 11:33:21;;;;;;;2.33;1.73;;;;;;;10.22;52.16;97733.13;5028235;27;102997;-68
2023/11/11 11:44:28;;;;;;;4.28;2.47;;;;;;;9.30;54.71;97743.28;5026596;27;103229;-68
2023/11/11 11:46:59;;;;;;;4.40;1.77;;;;;;;9.66;53.99;97747.78;5034751;27;103249;-66
2023/11/11 11:49:27;;;;;;;8.32;3.40;;;;;;;9.62;53.49;97739.41;5030949;27;102706;-65
2023/11/11 11:51:56;;;;;;;4.05;1.60;;;;;;;9.60;53.07;97732.66;5033044;27;102750;-67
2023/11/11 11:54:27;;;;;;;2.70;1.65;;;;;;;9.51;52.86;97729.31;5029422;27;104173;-66
2023/11/11 11:57:04;;;;;;;3.88;1.98;;;;;;;9.52;54.30;97732.78;5008009;27;103310;-66
2023/11/11 11:59:34;;;;;;;2.92;1.77;;;;;;;9.36;54.09;97736.44;5033398;27;102605;-66
2023/11/11 12:02:02;;;;;;;3.45;2.00;;;;;;;9.74;53.24;97739.75;5009084;27;103870;-68
2023/11/11 12:04:33;;;;;;;4.22;1.80;;;;;;;9.62;53.75;97741.25;5027875;27;105439;-66
2023/11/11 12:07:08;;;;;;;4.80;2.22;;;;;;;9.82;52.35;97735.38;5032408;27;103209;-67
2023/11/11 12:09:36;;;;;;;20.50;4.05;;;;;;;10.01;52.92;97729.47;5036457;27;102628;-67
2023/11/11 12:12:08;;;;;;;14.60;3.17;;;;;;;10.05;52.97;97730.72;5032433;27;103938;-65
2023/11/11 12:14:38;;;;;;;45.85;7.20;;;;;;;9.93;54.09;97740.13;5032778;27;104088;-68
2023/11/11 12:17:06;;;;;;;4.90;2.03;;;;;;;9.23;55.54;97755.59;5026047;27;103233;-69
2023/11/11 12:19:37;;;;;;;4.57;2.13;;;;;;;8.89;57.92;97770.13;5031005;27;102937;-68
2023/11/11 12:33:37;;;;;;;7.97;2.72;;;;;;;7.87;66.85;97789.66;5021581;27;102715;-67
2023/11/11 12:36:05;;;;;;;3.47;2.05;;;;;;;7.60;68.26;97768.88;5013650;27;102690;-64
2023/11/11 12:38:36;;;;;;;9.48;2.75;;;;;;;8.02;66.64;97780.03;5033317;27;103217;-64